< < Back
Terminal Aerodrome Forecast


Current Version              Previous Versions:   1  2  3  4  5  6  7  8  9  

Terminal Aerodrome Forecast

807
FTAK31 PAJN 010500
TAFAGS
TAF
PAGS 010520Z 0106/0206 VRB03KT P6SM OVC060
     FM011800 VRB04KT P6SM VCSH SCT025 OVC050
     FM020000 36005KT P6SM -RA BKN025 OVC050
      AMD LTD TO CLD VIS AND WIND=

Latest METAR

180
SAUS70 KWBC 011300 RRH
MTRAGS
METAR KAGS 011253Z 25007KT 10SM CLR 23/20 A3001 RMK AO2 SLP161 P0001
T02280200


USA.gov is the U.S. government's official web portal to all federal, state and local government web resources and services.